Etusivu
METAR-TAF:

METAR-TAF

Lentoasemat :

Wharton, Texas, Yhdysvallat

Leveyspiiri: 29-15-15N, Pituuspiiri: 096-09-15W, korkeus merenpinnasta: 31 m

Tämänhetkinen sää

Tämä raportti tehtiin 27 minuuttia sitten, kello 18.55 UTC
Tuuli 12 kn idästä/kaakosta puuskistuen 16 kn:hen
Lämpötila 27°C
Kosteus 66%
Ilmanpaine 1015 hPa
Näkyvyys: 16.1 km
selkeää

METAR: KARM 241855Z AUTO 12012G16KT 10SM CLR 27/20 A2996 RMK AO2 LTG DSNT W T02650196

Aika: 14:22 (19:22 UTC)


TAF: puuttuu

Säähavainnot ja -ennusteet yli 4000 lentoasemalta (METAR- ja TAF-raportit).

Käytössä olevat sääasemat on merkitty karttaan keltaisilla ja punaisilla pisteillä.

Aseta hiiri pisteen päälle nähdäksesi sääaseman nimen.

Klikkaa sitten nähdäksesi säähavainnot ja -ennusteet.

Kartan vaihtaminen: klikkaa mustalla rastilla varustettuja vihreitä pisteitä, niin voit zoomata sisään; viivalla varustettua vihreää pistettä, niin voit zoomata ulos tai vihreitä nuolia, niin pääset viereisille kartoille.


METAR-TAF: